The Official Home Page Of The Professional Rodeo Cowboys Association PRCA RAM WORLD STANDINGS
ProRodeoTv.Com
Red

PRCA Stock Statistics

SEARCH BY:
Stock Rodeo Contestant Stock Contractor

Braden Richardson

EVENT:
Unofficial results reflect placement at time of Web posting and can change.

SEASON BREAKDOWN

Season Attempts Qual Rides Re-rides Ride %
2018 77 19 0 24.68 %
2017 41 8 0 19.51 %
Totals 118 27 0 0.00 %

RODEO DETAIL

Date Location Rodeo SC Brand Ride Comments Stock Score Contestant Score
8/18/2018 Moses Lake, WA Moses Lake Round-Up Rodeo CH 356 0.00 22.50 / 22.00 0.00 / 0.00
8/8/2018 Lovington, NM Lea County Fair & PRCA Rodeo SS 404 82.00 20.00 / 20.00 21.00 / 21.00
8/7/2018 Lovington, NM Lea County Fair & PRCA Rodeo Xtreme Bulls SS 39B 0.00 21.00 / 20.00 0.00 / 0.00
8/6/2018 Loveland, CO Larimer County Fair & Rodeo RM 327 0.00 20.50 / 21.00 0.00 / 0.00
8/4/2018 Abilene, KS Wild Bill Hickok Rodeo AN 58 91.00 22.50 / 23.00 23.50 / 22.00
8/3/2018 Dodge City, KS Dodge City Roundup Rodeo FL 2292 0.00 19.50 / 20.50 0.00 / 0.00
8/1/2018 Rifle, CO Garfield County Fair Extreme Bulls SR 324 85.00 21.50 / 20.00 22.50 / 21.00
7/31/2018 Dodge City, KS Dodge City Roundup Xtreme Bulls FL 3106 0.00 23.50 / 24.00 0.00 / 0.00
7/28/2018 Cheyenne, WY Cheyenne Frontier Days SS Y10 0.00 22.00 / 22.00 0.00 / 0.00
7/27/2018 Cheyenne, WY Cheyenne Frontier Days AN F41 0.00 22.50 / 24.50 0.00 / 0.00
7/26/2018 Deadwood, SD Deadwood Days Of 76 Rodeo SU L5 75.00 19.00 / 17.00 21.00 / 18.00
7/23/2018 Ogden, UT Ogden Pioneer Days KR 44 0.00 21.00 / 21.50 0.00 / 0.00
7/21/2018 Salinas, CA California Rodeo Salinas WR 322 0.00 14.50 / 18.50 0.00 / 0.00
7/20/2018 Nampa, ID Snake River Stampede FL 447 0.00 21.00 / 21.50 0.00 / 0.00
7/14/2018 Colorado Springs, CO Pikes Peak or Bust Rodeo FL 389 0.00 21.00 / 21.00 0.00 / 0.00
7/13/2018 Casper, WY Central Wyoming Fair & PRCA Rodeo LH 43X 0.00 21.50 / 22.00 0.00 / 0.00
7/12/2018 Colorado Springs, CO Pikes Peak or Bust Rodeo FL 3157 88.50 21.00 / 22.50 22.00 / 23.00
7/11/2018 Sheridan, WY Sheridan WYO Rodeo SA 314 76.00 19.00 / 19.00 20.00 / 18.00
7/8/2018 Isanti, MN Isanti Firefighters Xtreme Bulls CP 196 0.00 21.50 / 21.50 0.00 / 0.00
7/7/2018 Hamel, MN Hamel Rodeo & Bull Ridin Bonanza JB 29 83.50 20.00 / 21.00 21.00 / 21.50
7/6/2018 Spooner, WI Heart Of The North Rodeo BA S339 0.00 19.50 / 20.50 0.00 / 0.00
7/4/2018 Red Lodge, MT Home Of Champions Rodeo BR 43 0.00 22.00 / 19.00 0.00 / 0.00
7/3/2018 Livingston, MT Livingston Roundup GK 311 0.00 22.00 / 22.00 0.00 / 0.00
7/3/2018 Greeley, CO Greeley Stampede BU 014 0.00 22.50 / 21.00 0.00 / 0.00
7/2/2018 Mandan, ND Mandan Rodeo Days DK 104 0.00 21.00 / 21.50 0.00 / 0.00
Page of 4
Per Page
Official Gear Of The PRCA

 
 
 
PRCA National Sponsors
MGM Grand Polaris Ranger
Copyright © 2018 Professional Rodeo Cowboys Association. All rights reserved. No portion of ProRodeo.com may be duplicated, redistributed or manipulated in any form. By accessing any information beyond this page, you agree to abide by the Terms of Use.
PRCA Wrangler National Finals Rodeo Wrangler ProRodeo Tour Finale Presented by Justin Boots Xtreme Bulls RAM National Circuit Finals Rodeo ProRodeo Gear ProRodeo Tour